15.9
Current conditions from King Hill
Updated every 5 minutes
 
  Wednesday November 14, 2018

Observations for Westford

Westford

44° 37' 38"N, 73° 02' 29"W, Elevation 850 ft.
Eastern Time

Hourly observations for the last 72 hours

Date Time Temperature (°F) Humi-
dity

(%)
Wind
(mph)
Pressure Rain (in)
Air Dew 6 Hour 1 Hr 3 Hr 6 Hr Day
Alt
(in)
Sea
Level

(mb)
Max Min
14 14:00 16.3 7.6 68 WNW 8 G 18 30.40 1029.6 0.00
14 13:00 15.4 10.1 18.0 14.4 79 NW 6 G 16 30.36 1028.3 0.00
14 12:00 16.2 10.5 78 NW 2 G 13 30.35 1027.8 0.00
14 11:00 16.8 10.3 75 NW 10 G 21 30.33 1027.0 0.00
14 10:00 16.7 10.5 76 NW 9 G 22 30.30 1026.2 0.00
14 09:00 15.3 10.5 81 WNW 9 G 20 30.28 1025.3 0.00
14 08:00 14.5 9.2 79 WNW 6 G 20 30.25 1024.5 0.00
14 07:00 14.5 9.2 18.5 14.5 79 WNW 8 G 15 30.21 1023.1 0.00
14 06:00 14.9 9.3 78 NNW 5 G 13 30.17 1021.9 0.00
14 05:00 15.4 9.5 77 NW 1 G 11 30.15 1021.0 0.00
14 04:00 16.1 10.2 77 NW 8 G 14 30.11 1019.6 0.00
14 03:00 17.0 9.8 73 NW 6 G 15 30.09 1019.0 0.00
14 02:00 18.0 10.5 72 NW 8 G 19 30.08 1018.7 0.00
14 01:00 18.5 10.7 28.5 17.8 71 NW 7 G 13 30.07 1018.3 0.00
14 00:00 18.4 11.2 73 W 2 G 10 30.07 1018.4 0.13
13 23:00 19.6 12.4 73 WNW 4 G 21 30.07 1018.3 0.13
13 22:00 21.7 14.1 72 WNW 5 G 21 30.04 1017.2 0.13
13 21:00 24.7 18.5 77 WNW 3 G 21 29.99 1015.7 0.13
13 20:00 26.2 20.3 78 WNW 10 G 25 29.96 1014.6 0.13
13 19:00 28.5 25.1 34.2 28.5 87 WNW 11 G 21 29.92 1013.3 0.02 0.09 0.13
13 18:00 31.8 30.3 94 WNW 8 G 24 29.89 1012.1 0.01 0.13
13 17:00 33.8 32.5 95 W 3 G 6 29.85 1011.0 0.01 0.12
13 16:00 33.4 32.1 95 Calm 29.85 1010.8 0.02 0.07 0.11
13 15:00 33.7 32.4 95 Calm 29.84 1010.5 0.03 0.09
13 14:00 33.9 32.6 95 Calm 29.85 1011.0 0.02 0.06
13 13:00 33.9 32.6 34.0 32.1 95 Calm 29.88 1012.0 0.01 0.03 0.04 0.04
13 12:00 33.5 32.2 95 Calm 29.92 1013.2 0.01 0.03
13 11:00 33.1 31.8 95 Calm 29.94 1014.0 0.01 0.02
13 10:00 33.1 31.8 95 Calm 29.98 1015.3 0.01 0.01 0.01
13 09:00 32.3 31.0 95 Calm 30.03 1016.9 0.00
13 08:00 32.2 30.9 95 Calm 30.07 1018.3 0.00
13 07:00 32.2 30.9 33.2 32.2 95 Calm 30.09 1018.9 0.00
13 06:00 32.4 30.9 94 SSW 0 G 4 30.10 1019.4 0.00
13 05:00 33.1 31.6 94 SSW 0 G 7 30.13 1020.3 0.00
13 04:00 33.1 31.6 94 SSW 0 G 4 30.14 1020.6 0.00
13 03:00 32.5 31.0 94 Calm 30.17 1021.8 0.00
13 02:00 32.8 31.0 93 Calm 30.20 1022.9 0.00
13 01:00 33.0 30.7 38.7 32.5 91 SW 0 G 5 30.23 1023.7 0.00
13 00:00 36.8 30.0 76 S 6 G 19 30.25 1024.3 0.00
12 23:00 36.2 26.7 68 SSW 1 G 5 30.25 1024.5 0.00
12 22:00 36.1 26.9 69 Calm 30.27 1025.2 0.00
12 21:00 34.0 26.9 75 SSW 0 G 2 30.27 1025.2 0.00
12 20:00 33.4 26.7 76 Calm 30.27 1025.1 0.00
12 19:00 34.2 26.8 42.0 34.1 74 SSW 1 G 4 30.29 1025.9 0.00
12 18:00 36.0 27.5 71 SSW 0 G 4 30.31 1026.5 0.00
12 17:00 34.2 26.8 74 Calm 30.31 1026.5 0.00
12 16:00 39.1 28.0 64 SSW 0 G 5 30.30 1026.1 0.00
12 15:00 41.4 28.6 60 S 2 G 7 30.30 1026.0 0.00
12 14:00 41.8 28.5 59 W 4 G 9 30.31 1026.3 0.00
12 13:00 39.7 27.8 40.3 26.2 62 SW 5 G 10 30.30 1026.2 0.00
12 12:00 36.7 27.1 68 SSW 4 G 8 30.31 1026.3 0.00
12 11:00 35.3 26.8 71 SSW 3 G 8 30.33 1027.1 0.00
12 10:00 34.3 25.9 71 S 4 G 9 30.34 1027.4 0.00
12 09:00 31.1 24.1 75 SSW 4 G 9 30.34 1027.4 0.00
12 08:00 28.2 22.2 78 SSW 1 G 5 30.33 1027.3 0.00
12 07:00 26.2 21.2 26.2 21.4 81 SSW 0 G 5 30.33 1027.3 0.00
12 06:00 23.4 18.7 82 Calm 30.32 1026.8 0.00
12 05:00 23.7 19.0 82 Calm 30.32 1026.7 0.00
12 04:00 25.5 20.8 82 Calm 30.32 1026.8 0.00
12 03:00 22.9 20.1 89 SSW 0 G 2 30.32 1026.8 0.00
12 02:00 22.6 18.5 84 Calm 30.32 1026.8 0.00
12 01:00 24.3 19.6 27.9 23.7 82 Calm 30.31 1026.5 0.00
12 00:00 25.0 18.8 77 Calm 30.31 1026.5 0.00
11 23:00 25.3 18.8 76 W 0 G 2 30.31 1026.3 0.00
11 22:00 25.6 17.8 72 Calm 30.31 1026.3 0.00
11 21:00 27.2 17.0 65 SW 0 G 5 30.30 1025.9 0.00
11 20:00 27.8 14.9 58 W 0 G 6 30.28 1025.5 0.00
11 19:00 25.6 13.6 34.1 25.6 60 Calm 30.28 1025.3 0.00
11 18:00 27.0 10.8 50 WSW 0 G 2 30.27 1025.0 0.00
11 17:00 28.8 10.6 46 W 0 G 4 30.25 1024.4 0.00
11 16:00 32.0 10.4 40 W 1 G 9 30.24 1024.0 0.00
11 15:00 33.5 11.7 40 NW 1 G 12 30.23 1023.7 0.00

Data generated by WxSolution Version 1.9.1.6, Build 2018.07.01.


 
 
Current Radar Loop:

Copyright © WestfordWeather.net 2007-2018. All rights reserved.